Aviation Digital Data Service (ADDS)

Output produced by METARs form (2240 UTC 30 March 2017)
found at http://www.aviationweather.gov/adds/metars/
 
TAF COR KFAF 302038Z 3020/3124 10012KT 9999 BKN050 QNH3010INS 
     BECMG 3101/3102 12010G15KT 9999 BKN015 OVC030 QNH3013INS 
     BECMG 3107/3108 12009KT 9999 SCT010 BKN080 WS019/19038KT QNH2992INS 
     BECMG 3113/3114 17012G18KT 8000 -SHRA SCT010 BKN040 OVC070 QNH2986INS 
     BECMG 3116/3117 18012G18KT 8000 -SHRA OVC007 QNH2974INS 
     TEMPO 3121/3124 24015G25KT 6000 -TSRA BKN030CB 
     BECMG 3123/3124 19009KT 8000 -SHRA SCT010 BKN020 QNH2973INS TX12/3020Z TN11/3101Z LAST NO AMDS AFT 3103 NEXT 3110
       
KFAR 301739Z 3018/3118 15007KT P6SM BKN100 
     TEMPO 3018/3020 BKN020 
     FM302300 12006KT P6SM BKN150 
     FM311700 05005KT P6SM SCT200
       
KFAT 301932Z 3020/3118 31023G28KT P6SM FEW040 
     FM310500 31015G25KT P6SM SCT050 
     FM310900 29008KT P6SM SKC
       
KFAY 302203Z 3022/3118 14010G16KT P6SM OVC050 
     FM310500 15008KT P6SM VCSH BKN015 OVC040 
     FM310900 17011G20KT 3SM SHRA BR BKN012 OVC060 
     TEMPO 3110/3113 2SM +TSRA BR SCT008 OVC025CB 
     FM311700 21013G23KT P6SM VCSH SCT030 BKN050
       
TAF AMD KFBG 301722Z 3017/3123 13012KT 9999 FEW020 BKN050 QNH2998INS 
     BECMG 3101/3102 14012KT 9999 VCSH BKN025 OVC050 520003 QNH2982INS 
     BECMG 3106/3107 16010G15KT 6000 -SHRA VCTS OVC007CB QNH2964INS 
     TEMPO 3110/3115 16015G30KT 2400 TSRA SCT002 OVC005CB 
     BECMG 3114/3115 16012G18KT 8000 -SHRA VCTS BKN025CB OVC080 QNH2962INS 
     TEMPO 3115/3120 20018G28KT 
     BECMG 3120/3121 23010G15KT 9999 NSW BKN030 OVC080 QNH2962INS TX22/3021Z TN14/3110Z
       
TAF KFCS 302106Z 3021/0103 18009KT 9999 VCSH BKN080 OVC250 QNH2965INS 
     TEMPO 3101/3103 18015G25KT 9000 -SHRA 
     BECMG 3102/3103 24009KT 9999 NSW SCT080 BKN150 OVC250 QNH2957INS 
     BECMG 3108/3109 01012KT 9999 SCT007 BKN080 OVC250 QNH2957INS 
     BECMG 3114/3115 03012KT 6000 BR OVC005 QNH2958INS 
     BECMG 3117/3118 06012G20KT 6000 BR VCSH OVC005 610059 510009 QNH2956INS 
     TEMPO 3123/0103 9000 -SHRA OVC010 TX18/3021Z TNM01/3121Z
       
KFDY 302106Z 3021/3118 03012KT P6SM BKN035 OVC060 
     FM310000 08008KT 4SM BR OVC060 
     FM310500 06004KT 3SM -TSRA BR SCT025CB OVC035 
     FM311200 04004KT 1 1/2SM -SHRA BR OVC003 
     FM311400 02005KT 2SM -DZ BR OVC003
       
TAF KFFO 301900Z 3019/0101 16012G18KT 9999 OVC100 QNH2961INS 
     TEMPO 3019/3022 16015G25KT 6000 -SHRA 
     BECMG 3021/3022 18012KT 6000 -SHRA SCT020 BKN040 OVC100 QNH2959INS 
     TEMPO 3022/3103 19015G25KT 4800 -TSRA OVC020CB 
     BECMG 3105/3106 19012G18KT 4800 -SHRA BR OVC006 510063 QNH2955INS 
     TEMPO 3106/3110 20010G20KT 1200 -TSRA OVC006CB 
     BECMG 3113/3114 23012G18KT 4800 BR OVC010 QNH2957INS 
     BECMG 3114/3115 26012G18KT 9999 NSW OVC015 QNH2957INS 
     BECMG 3123/3124 28012KT 9999 BKN008 QNH2961INS TX27/3021Z TN12/3117Z
       
TAF AMD KFHU 301911Z 3019/3124 23009KT 9999 FEW250 QNH2999INS 
     BECMG 3020/3021 24015G25KT 9999 SCT200 520009 QNH2995INS 
     BECMG 3021/3022 24025G35KT 8000 BLDU SCT200 530009 QNH2980INS 
     TEMPO 3106/3111 24040G50KT 580009 
     BECMG 3119/3120 26015G30KT 9999 NSW FEW250 520009 QNH2982INS TX26/3022Z TN07/3113Z
       
KFKL 301922Z 3019/3118 10012G20KT P6SM RA OVC040 
     FM310200 14011KT 6SM -SHRA OVC025 WS020/20045KT 
     FM310900 13009KT 3SM -SHRA OVC010 WS020/20045KT 
     FM311500 18008KT 5SM -SHRA OVC008 AMD LTD TO CLD VIS AND WIND
       
KFLG 301740Z 3018/3118 22017G27KT P6SM SCT250 
     FM302000 22030G40KT P6SM SCT100 
     FM310230 22020G30KT P6SM VCSH BKN035 OVC070 
     TEMPO 3103/3105 VRB30G45KT TSRASN OVC035CB 
     FM310500 24015G25KT 5SM -SHSN OVC025
       
KFLL 302100Z 3021/3118 14012KT P6SM SCT040 
     FM310100 15008KT P6SM FEW030 SCT050 
     FM311300 17015KT P6SM SCT035
       
KFLO 301736Z 3018/3118 13012KT P6SM BKN035 BKN060 
     TEMPO 3018/3022 BKN025 
     FM310100 14011KT P6SM VCTS SCT015CB BKN060 
     FM310300 15011KT P6SM SCT010 BKN070 
     PROB30 3103/3108 4SM TSRA BKN010CB 
     FM310800 16010KT P6SM SHRA VCTS SCT010CB OVC040 
     FM311300 19012KT P6SM SHRA VCTS BKN035CB OVC060 
     FM311500 21014KT P6SM BKN060 OVC080 
     PROB30 3115/3118 4SM TSRA BKN050CB
       
KFMH 301736Z 3018/3118 01008KT P6SM SKC 
     FM311400 09004KT 4SM -RA OVC025 
     FM311700 08005KT 1SM -RAPL OVC040
       
KFMN 301724Z 3018/3118 23009KT P6SM BKN200 
     FM302100 23015G25KT P6SM SCT100 BKN200 
     FM310200 20010KT P6SM SCT100 SCT200 
     FM310800 12011KT P6SM SCT080 
     FM311600 14008KT P6SM VCSH SCT050 BKN090
       
KFMY 301722Z 3018/3118 19012G18KT P6SM SCT060 SCT250 
     FM302300 21007KT P6SM SCT250 
     FM310200 18005KT P6SM BKN250 
     FM311300 18008KT P6SM SCT010 BKN250 
     FM311500 18012G20KT P6SM VCSH SCT035 BKN250
       
KFNT 301720Z 3018/3118 09015G25KT 5SM -RA BR BKN010 OVC040 
     FM302000 08012G19KT 2SM SHRA BR OVC008 
     FM310100 07008KT 2SM -DZ BR OVC005 
     FM311000 05007KT 1SM -DZ BR OVC004 
     FM311500 36010KT 3SM -DZ BR OVC007
       
KFOD 301742Z 3018/3118 04011G16KT P6SM OVC008 
     FM310300 02008KT P6SM OVC007 
     FM311100 02008KT P6SM BKN010 
     FM311600 02009KT P6SM BKN025 
     FM311700 02010KT P6SM BKN040
       
KFOE 302053Z 3021/3118 34011KT P6SM OVC007 
     TEMPO 3021/3023 2SM -RA OVC005 
     FM310800 33006KT P6SM OVC005 
     FM311600 03007KT P6SM BKN010
       
KFPR 302106Z 3021/3118 13018G24KT P6SM FEW045 
     FM310000 16007KT P6SM SCT050 
     FM311500 19014G20KT P6SM FEW030
       
TAF AMD KFRI 301934Z 3019/3122 33012KT 9000 -RA BKN009 QNH2963INS 
     TEMPO 3019/3103 BKN010 
     BECMG 3102/3103 36006KT 9999 NSW BKN012 QNH2969INS 
     BECMG 3108/3109 02006KT 9999 BKN008 QNH2975INS TX10/3021Z TN03/3108Z
       
KFSD 301720Z 3018/3118 05012KT P6SM OVC010 
     FM310200 05008KT P6SM OVC015 
     FM311000 02006KT P6SM OVC015 
     FM311300 03007KT P6SM BKN030
       
TAF AMD KFSI 302220Z 3022/0103 32012KT 9999 FEW270 510424 QNH2968INS 
     BECMG 3100/3101 VRB06KT 9999 FEW250 520434 QNH2967INS 
     BECMG 3114/3115 09010G15KT 9999 FEW150 520124 QNH2979INS 
     BECMG 3120/3121 12010G15KT 9999 SCT290 520353 QNH2972INS TX22/3121Z TN08/3112Z
       
KFSM 301720Z 3018/3118 26011G20KT P6SM OVC035 
     TEMPO 3018/3021 OVC025 
     FM310000 29006KT P6SM BKN035 
     FM310400 VRB04KT P6SM SCT035
       
KFST 301730Z 3018/3118 26017G24KT P6SM FEW250 
     FM310000 20006KT P6SM SCT250
       
TAF AMD KFTK 302151Z 3021/3123 20015G25KT 9999 SCT030 BKN060 BKN200 QNH2959INS 
     TEMPO 3021/3023 21025G35KT 510003 
     BECMG 3022/3023 27015G25KT 9000 -SHRA BKN030 OVC060 QNH2955INS 
     TEMPO 3100/3102 20030G40KT 3200 TSRAGR OVC010CB 
     BECMG 3104/3105 25009KT 8000 -SHRA OVC020 QNH2963INS 
     BECMG 3108/3109 25009KT 9999 NSW BKN020 OVC040 QNH2965INS 
     BECMG 3114/3115 25012G18KT 9999 BKN015 OVC030 QNH2976INS TX26/3021Z TN08/3111Z
       
KFTW 302052Z 3021/3118 29016KT P6SM FEW250 
     FM310000 25006KT P6SM FEW250 
     FM310300 13006KT P6SM FEW250
       
KFTY 302143Z 3022/3118 18012G22KT P6SM FEW060 BKN100 
     FM302300 20010G20KT P6SM VCSH BKN050 
     FM310300 19007KT 5SM -SHRA BKN030 
     TEMPO 3103/3107 VRB20G30KT 3SM TSRA BKN020CB 
     FM310700 22008KT P6SM VCSH OVC015 
     FM311400 27011KT P6SM BKN030
       
KFVE 301720Z 3018/3118 34012KT P6SM BKN040 
     FM301900 35010KT P6SM SCT040 
     FM302300 35008KT P6SM SCT080
       
KFWA 301941Z 3020/3118 09012KT P6SM VCTS BKN008 OVC050CB 
     FM302100 10011KT 5SM SHRA VCTS OVC025CB 
     TEMPO 3021/3101 2SM TSRA BKN008 OVC015CB 
     FM310500 14007KT 3SM SHRA OVC040 
     FM311000 18007KT 2SM BR VCSH OVC015 
     FM311600 25010KT P6SM OVC015
       
KFXE 302100Z 3021/3118 14010KT P6SM SCT040 
     FM310000 14006KT P6SM FEW030 SCT050 
     FM311300 17012KT P6SM SCT040
       
KFYV 301720Z 3018/3118 24012G18KT P6SM OVC015 
     FM310200 29005KT P6SM OVC015 
     FM311500 01003KT P6SM SCT025